sensor_id;sensor_type;location;lat;lon;timestamp;temperature;humidity
69328;DHT22;56472;52.114;5.492;2023-06-14T00:02:11;25.70;37.00
69328;DHT22;56472;52.114;5.492;2023-06-14T00:04:38;25.70;37.00
69328;DHT22;56472;52.114;5.492;2023-06-14T00:07:08;25.70;37.10
69328;DHT22;56472;52.114;5.492;2023-06-14T00:09:37;25.70;37.10
69328;DHT22;56472;52.114;5.492;2023-06-14T00:12:04;25.70;37.10
69328;DHT22;56472;52.114;5.492;2023-06-14T00:14:33;25.70;37.10
69328;DHT22;56472;52.114;5.492;2023-06-14T00:17:00;25.60;37.00
69328;DHT22;56472;52.114;5.492;2023-06-14T00:19:28;25.60;37.00
69328;DHT22;56472;52.114;5.492;2023-06-14T00:21:57;25.60;37.00
69328;DHT22;56472;52.114;5.492;2023-06-14T00:24:24;25.60;37.00
69328;DHT22;56472;52.114;5.492;2023-06-14T00:26:51;25.60;37.00
69328;DHT22;56472;52.114;5.492;2023-06-14T00:29:18;25.60;37.10
69328;DHT22;56472;52.114;5.492;2023-06-14T00:31:45;25.60;37.10
69328;DHT22;56472;52.114;5.492;2023-06-14T00:34:12;25.60;37.10
69328;DHT22;56472;52.114;5.492;2023-06-14T00:36:40;25.60;37.00
69328;DHT22;56472;52.114;5.492;2023-06-14T00:39:07;25.60;37.00
69328;DHT22;56472;52.114;5.492;2023-06-14T00:41:35;25.50;37.00
69328;DHT22;56472;52.114;5.492;2023-06-14T00:44:02;25.50;37.00
69328;DHT22;56472;52.114;5.492;2023-06-14T00:46:29;25.50;36.90
69328;DHT22;56472;52.114;5.492;2023-06-14T00:48:58;25.50;37.00
69328;DHT22;56472;52.114;5.492;2023-06-14T00:51:27;25.50;37.00
69328;DHT22;56472;52.114;5.492;2023-06-14T00:53:54;25.50;37.00
69328;DHT22;56472;52.114;5.492;2023-06-14T00:56:21;25.50;36.90
69328;DHT22;56472;52.114;5.492;2023-06-14T00:58:50;25.50;37.00
69328;DHT22;56472;52.114;5.492;2023-06-14T01:01:18;25.50;37.00
69328;DHT22;56472;52.114;5.492;2023-06-14T01:03:45;25.40;36.90
69328;DHT22;56472;52.114;5.492;2023-06-14T01:06:23;25.50;37.00
69328;DHT22;56472;52.114;5.492;2023-06-14T01:09:18;25.40;36.90
69328;DHT22;56472;52.114;5.492;2023-06-14T01:12:07;25.40;37.00
69328;DHT22;56472;52.114;5.492;2023-06-14T01:14:39;25.40;37.10
69328;DHT22;56472;52.114;5.492;2023-06-14T01:17:08;25.40;37.10
69328;DHT22;56472;52.114;5.492;2023-06-14T01:19:43;25.30;37.00
69328;DHT22;56472;52.114;5.492;2023-06-14T01:22:13;25.30;37.10
69328;DHT22;56472;52.114;5.492;2023-06-14T01:24:41;25.40;37.20
69328;DHT22;56472;52.114;5.492;2023-06-14T01:27:12;25.40;37.20
69328;DHT22;56472;52.114;5.492;2023-06-14T01:29:40;25.30;37.10
69328;DHT22;56472;52.114;5.492;2023-06-14T01:32:14;25.30;37.10
69328;DHT22;56472;52.114;5.492;2023-06-14T01:34:42;25.30;37.10
69328;DHT22;56472;52.114;5.492;2023-06-14T01:37:09;25.30;37.10
69328;DHT22;56472;52.114;5.492;2023-06-14T01:39:37;25.30;37.10
69328;DHT22;56472;52.114;5.492;2023-06-14T01:42:05;25.30;37.10
69328;DHT22;56472;52.114;5.492;2023-06-14T01:44:34;25.30;38.10
69328;DHT22;56472;52.114;5.492;2023-06-14T01:47:01;25.30;37.10
69328;DHT22;56472;52.114;5.492;2023-06-14T01:49:28;25.20;37.10
69328;DHT22;56472;52.114;5.492;2023-06-14T01:51:55;25.20;37.10
69328;DHT22;56472;52.114;5.492;2023-06-14T01:54:22;25.20;37.10
69328;DHT22;56472;52.114;5.492;2023-06-14T01:56:49;25.20;37.10
69328;DHT22;56472;52.114;5.492;2023-06-14T01:59:16;25.20;37.10
69328;DHT22;56472;52.114;5.492;2023-06-14T02:01:43;25.20;37.10
69328;DHT22;56472;52.114;5.492;2023-06-14T02:04:12;25.20;37.10
69328;DHT22;56472;52.114;5.492;2023-06-14T02:06:39;25.20;37.10
69328;DHT22;56472;52.114;5.492;2023-06-14T02:09:06;25.10;37.20
69328;DHT22;56472;52.114;5.492;2023-06-14T02:11:33;25.10;37.20
69328;DHT22;56472;52.114;5.492;2023-06-14T02:14:00;25.10;37.20
69328;DHT22;56472;52.114;5.492;2023-06-14T02:16:28;25.10;37.20
69328;DHT22;56472;52.114;5.492;2023-06-14T02:18:56;25.10;37.30
69328;DHT22;56472;52.114;5.492;2023-06-14T02:21:23;25.10;37.30
69328;DHT22;56472;52.114;5.492;2023-06-14T02:23:50;25.00;37.40
69328;DHT22;56472;52.114;5.492;2023-06-14T02:26:20;25.00;37.30
69328;DHT22;56472;52.114;5.492;2023-06-14T02:28:47;25.00;37.30
69328;DHT22;56472;52.114;5.492;2023-06-14T02:31:14;25.00;37.30
69328;DHT22;56472;52.114;5.492;2023-06-14T02:33:41;25.00;37.30
69328;DHT22;56472;52.114;5.492;2023-06-14T02:36:08;25.00;37.40
69328;DHT22;56472;52.114;5.492;2023-06-14T02:38:35;25.00;37.30
69328;DHT22;56472;52.114;5.492;2023-06-14T02:41:02;25.00;37.30
69328;DHT22;56472;52.114;5.492;2023-06-14T02:43:29;24.90;37.30
69328;DHT22;56472;52.114;5.492;2023-06-14T02:45:57;24.90;37.40
69328;DHT22;56472;52.114;5.492;2023-06-14T02:48:25;24.90;37.30
69328;DHT22;56472;52.114;5.492;2023-06-14T02:50:52;24.90;37.40
69328;DHT22;56472;52.114;5.492;2023-06-14T02:53:19;24.90;37.50
69328;DHT22;56472;52.114;5.492;2023-06-14T02:55:46;24.80;37.50
69328;DHT22;56472;52.114;5.492;2023-06-14T02:58:14;24.80;37.50
69328;DHT22;56472;52.114;5.492;2023-06-14T03:00:41;24.80;37.60
69328;DHT22;56472;52.114;5.492;2023-06-14T03:03:09;24.80;37.60
69328;DHT22;56472;52.114;5.492;2023-06-14T03:05:46;24.80;37.60
69328;DHT22;56472;52.114;5.492;2023-06-14T03:08:16;24.80;37.60
69328;DHT22;56472;52.114;5.492;2023-06-14T03:10:47;24.80;37.60
69328;DHT22;56472;52.114;5.492;2023-06-14T03:13:15;24.70;37.70
69328;DHT22;56472;52.114;5.492;2023-06-14T03:15:43;24.70;37.70
69328;DHT22;56472;52.114;5.492;2023-06-14T03:18:13;24.70;37.70
69328;DHT22;56472;52.114;5.492;2023-06-14T03:20:41;24.70;37.70
69328;DHT22;56472;52.114;5.492;2023-06-14T03:23:09;24.60;37.60
69328;DHT22;56472;52.114;5.492;2023-06-14T03:25:37;24.60;37.70
69328;DHT22;56472;52.114;5.492;2023-06-14T03:28:05;24.60;37.70
69328;DHT22;56472;52.114;5.492;2023-06-14T03:30:32;24.60;37.80
69328;DHT22;56472;52.114;5.492;2023-06-14T03:33:01;24.60;37.80
69328;DHT22;56472;52.114;5.492;2023-06-14T03:35:29;24.60;37.80
69328;DHT22;56472;52.114;5.492;2023-06-14T03:37:56;24.60;37.80
69328;DHT22;56472;52.114;5.492;2023-06-14T03:40:24;24.50;37.90
69328;DHT22;56472;52.114;5.492;2023-06-14T03:42:55;24.50;38.00
69328;DHT22;56472;52.114;5.492;2023-06-14T03:45:22;24.50;38.00
69328;DHT22;56472;52.114;5.492;2023-06-14T03:47:49;24.50;38.00
69328;DHT22;56472;52.114;5.492;2023-06-14T03:50:18;24.50;38.00
69328;DHT22;56472;52.114;5.492;2023-06-14T03:52:48;24.40;38.00
69328;DHT22;56472;52.114;5.492;2023-06-14T03:55:16;24.40;38.00
69328;DHT22;56472;52.114;5.492;2023-06-14T03:57:46;24.40;38.10
69328;DHT22;56472;52.114;5.492;2023-06-14T04:00:16;24.40;38.10
69328;DHT22;56472;52.114;5.492;2023-06-14T04:02:44;24.40;38.10
69328;DHT22;56472;52.114;5.492;2023-06-14T04:05:12;24.40;38.20
69328;DHT22;56472;52.114;5.492;2023-06-14T04:07:45;24.30;38.10
69328;DHT22;56472;52.114;5.492;2023-06-14T04:10:12;24.30;38.20
69328;DHT22;56472;52.114;5.492;2023-06-14T04:12:40;24.30;38.30
69328;DHT22;56472;52.114;5.492;2023-06-14T04:15:10;24.30;38.30
69328;DHT22;56472;52.114;5.492;2023-06-14T04:17:47;24.30;38.40
69328;DHT22;56472;52.114;5.492;2023-06-14T04:20:15;24.20;38.50
69328;DHT22;56472;52.114;5.492;2023-06-14T04:22:44;24.30;38.60
69328;DHT22;56472;52.114;5.492;2023-06-14T04:25:11;24.30;38.80
69328;DHT22;56472;52.114;5.492;2023-06-14T04:27:40;24.20;38.80
69328;DHT22;56472;52.114;5.492;2023-06-14T04:30:09;24.20;38.90
69328;DHT22;56472;52.114;5.492;2023-06-14T04:32:42;24.20;39.00
69328;DHT22;56472;52.114;5.492;2023-06-14T04:35:12;24.20;39.10
69328;DHT22;56472;52.114;5.492;2023-06-14T04:37:42;24.10;39.20
69328;DHT22;56472;52.114;5.492;2023-06-14T04:40:10;24.10;39.30
69328;DHT22;56472;52.114;5.492;2023-06-14T04:42:39;24.10;39.50
69328;DHT22;56472;52.114;5.492;2023-06-14T04:45:09;24.00;39.60
69328;DHT22;56472;52.114;5.492;2023-06-14T04:47:38;24.00;39.80
69328;DHT22;56472;52.114;5.492;2023-06-14T04:50:06;23.90;40.00
69328;DHT22;56472;52.114;5.492;2023-06-14T04:52:33;23.90;40.10
69328;DHT22;56472;52.114;5.492;2023-06-14T04:55:03;23.90;40.30
69328;DHT22;56472;52.114;5.492;2023-06-14T04:57:31;23.90;40.50
69328;DHT22;56472;52.114;5.492;2023-06-14T04:59:59;23.80;40.60
69328;DHT22;56472;52.114;5.492;2023-06-14T05:02:30;23.90;40.90
69328;DHT22;56472;52.114;5.492;2023-06-14T05:04:58;23.80;41.00
69328;DHT22;56472;52.114;5.492;2023-06-14T05:07:26;23.80;41.00
69328;DHT22;56472;52.114;5.492;2023-06-14T05:09:53;23.80;41.20
69328;DHT22;56472;52.114;5.492;2023-06-14T05:12:20;23.80;41.40
69328;DHT22;56472;52.114;5.492;2023-06-14T05:14:48;23.70;41.50
69328;DHT22;56472;52.114;5.492;2023-06-14T05:17:18;23.70;41.60
69328;DHT22;56472;52.114;5.492;2023-06-14T05:19:45;23.70;41.70
69328;DHT22;56472;52.114;5.492;2023-06-14T05:22:12;23.70;41.70
69328;DHT22;56472;52.114;5.492;2023-06-14T05:24:39;23.70;41.80
69328;DHT22;56472;52.114;5.492;2023-06-14T05:27:06;23.70;41.80
69328;DHT22;56472;52.114;5.492;2023-06-14T05:29:33;23.70;42.70
69328;DHT22;56472;52.114;5.492;2023-06-14T05:32:00;23.70;41.70
69328;DHT22;56472;52.114;5.492;2023-06-14T05:34:27;23.80;41.70
69328;DHT22;56472;52.114;5.492;2023-06-14T05:36:54;23.70;41.70
69328;DHT22;56472;52.114;5.492;2023-06-14T05:39:22;23.70;41.80
69328;DHT22;56472;52.114;5.492;2023-06-14T05:41:50;23.80;42.10
69328;DHT22;56472;52.114;5.492;2023-06-14T05:44:17;23.80;42.10
69328;DHT22;56472;52.114;5.492;2023-06-14T05:46:44;23.80;42.00
69328;DHT22;56472;52.114;5.492;2023-06-14T05:49:11;23.80;42.00
69328;DHT22;56472;52.114;5.492;2023-06-14T05:51:38;23.80;42.10
69328;DHT22;56472;52.114;5.492;2023-06-14T05:54:05;23.80;42.10
69328;DHT22;56472;52.114;5.492;2023-06-14T05:56:32;23.80;42.10
69328;DHT22;56472;52.114;5.492;2023-06-14T05:58:59;23.90;42.10
69328;DHT22;56472;52.114;5.492;2023-06-14T06:01:26;23.90;42.10
69328;DHT22;56472;52.114;5.492;2023-06-14T06:03:53;23.90;42.10
69328;DHT22;56472;52.114;5.492;2023-06-14T06:06:20;23.90;42.00
69328;DHT22;56472;52.114;5.492;2023-06-14T06:08:48;24.00;42.10
69328;DHT22;56472;52.114;5.492;2023-06-14T06:11:15;24.00;42.00
69328;DHT22;56472;52.114;5.492;2023-06-14T06:13:41;24.00;42.00
69328;DHT22;56472;52.114;5.492;2023-06-14T06:16:08;24.00;42.00
69328;DHT22;56472;52.114;5.492;2023-06-14T06:18:35;24.00;42.00
69328;DHT22;56472;52.114;5.492;2023-06-14T06:21:06;24.10;42.00
69328;DHT22;56472;52.114;5.492;2023-06-14T06:23:33;24.20;42.00
69328;DHT22;56472;52.114;5.492;2023-06-14T06:26:00;24.20;42.00
69328;DHT22;56472;52.114;5.492;2023-06-14T06:28:27;24.20;41.90
69328;DHT22;56472;52.114;5.492;2023-06-14T06:30:54;24.30;41.90
69328;DHT22;56472;52.114;5.492;2023-06-14T06:33:21;24.30;41.80
69328;DHT22;56472;52.114;5.492;2023-06-14T06:35:48;24.40;41.80
69328;DHT22;56472;52.114;5.492;2023-06-14T06:38:15;24.40;41.70
69328;DHT22;56472;52.114;5.492;2023-06-14T06:40:42;24.50;41.50
69328;DHT22;56472;52.114;5.492;2023-06-14T06:43:09;24.50;41.40
69328;DHT22;56472;52.114;5.492;2023-06-14T06:45:41;24.60;41.50
69328;DHT22;56472;52.114;5.492;2023-06-14T06:48:08;24.60;41.30
69328;DHT22;56472;52.114;5.492;2023-06-14T06:50:37;24.60;41.30
69328;DHT22;56472;52.114;5.492;2023-06-14T06:53:04;24.60;41.10
69328;DHT22;56472;52.114;5.492;2023-06-14T06:55:32;24.70;41.10
69328;DHT22;56472;52.114;5.492;2023-06-14T06:57:59;24.80;41.10
69328;DHT22;56472;52.114;5.492;2023-06-14T07:00:27;24.80;41.00
69328;DHT22;56472;52.114;5.492;2023-06-14T07:02:54;24.80;41.00
69328;DHT22;56472;52.114;5.492;2023-06-14T07:05:21;24.80;41.00
69328;DHT22;56472;52.114;5.492;2023-06-14T07:07:49;24.90;41.90
69328;DHT22;56472;52.114;5.492;2023-06-14T07:10:16;24.90;40.80
69328;DHT22;56472;52.114;5.492;2023-06-14T07:12:43;24.90;40.60
69328;DHT22;56472;52.114;5.492;2023-06-14T07:15:10;25.00;40.60
69328;DHT22;56472;52.114;5.492;2023-06-14T07:17:38;25.00;40.60
69328;DHT22;56472;52.114;5.492;2023-06-14T07:20:06;25.00;40.60
69328;DHT22;56472;52.114;5.492;2023-06-14T07:22:41;25.10;40.50
69328;DHT22;56472;52.114;5.492;2023-06-14T07:25:10;25.10;40.50
69328;DHT22;56472;52.114;5.492;2023-06-14T07:27:42;25.10;40.40
69328;DHT22;56472;52.114;5.492;2023-06-14T07:30:10;25.20;40.50
69328;DHT22;56472;52.114;5.492;2023-06-14T07:32:37;25.20;40.30
69328;DHT22;56472;52.114;5.492;2023-06-14T07:35:04;25.20;40.20
69328;DHT22;56472;52.114;5.492;2023-06-14T07:37:31;25.20;40.20
69328;DHT22;56472;52.114;5.492;2023-06-14T07:39:58;25.30;40.20
69328;DHT22;56472;52.114;5.492;2023-06-14T07:42:25;25.30;40.20
69328;DHT22;56472;52.114;5.492;2023-06-14T07:44:52;25.30;40.20
69328;DHT22;56472;52.114;5.492;2023-06-14T07:47:20;25.30;40.10
69328;DHT22;56472;52.114;5.492;2023-06-14T07:49:47;25.40;40.10
69328;DHT22;56472;52.114;5.492;2023-06-14T07:52:14;25.40;40.00
69328;DHT22;56472;52.114;5.492;2023-06-14T07:54:41;25.40;40.00
69328;DHT22;56472;52.114;5.492;2023-06-14T07:57:08;25.50;40.00
69328;DHT22;56472;52.114;5.492;2023-06-14T07:59:35;25.50;39.90
69328;DHT22;56472;52.114;5.492;2023-06-14T08:02:03;25.50;39.80
69328;DHT22;56472;52.114;5.492;2023-06-14T08:04:31;25.60;39.80
69328;DHT22;56472;52.114;5.492;2023-06-14T08:06:59;25.60;39.70
69328;DHT22;56472;52.114;5.492;2023-06-14T08:09:26;25.60;39.60
69328;DHT22;56472;52.114;5.492;2023-06-14T08:11:56;25.60;39.60
69328;DHT22;56472;52.114;5.492;2023-06-14T08:14:23;25.60;39.40
69328;DHT22;56472;52.114;5.492;2023-06-14T08:16:50;25.70;39.40
69328;DHT22;56472;52.114;5.492;2023-06-14T08:19:17;25.70;39.30
69328;DHT22;56472;52.114;5.492;2023-06-14T08:21:44;25.70;39.30
69328;DHT22;56472;52.114;5.492;2023-06-14T08:24:12;25.70;39.20
69328;DHT22;56472;52.114;5.492;2023-06-14T08:26:40;25.70;39.10
69328;DHT22;56472;52.114;5.492;2023-06-14T08:29:07;25.80;39.20
69328;DHT22;56472;52.114;5.492;2023-06-14T08:31:34;25.80;39.10
69328;DHT22;56472;52.114;5.492;2023-06-14T08:34:01;25.80;39.00
69328;DHT22;56472;52.114;5.492;2023-06-14T08:36:31;25.80;39.00
69328;DHT22;56472;52.114;5.492;2023-06-14T08:38:58;25.80;38.90
69328;DHT22;56472;52.114;5.492;2023-06-14T08:41:25;25.90;38.80
69328;DHT22;56472;52.114;5.492;2023-06-14T08:43:53;25.90;38.80
69328;DHT22;56472;52.114;5.492;2023-06-14T08:46:20;25.90;38.70
69328;DHT22;56472;52.114;5.492;2023-06-14T08:48:49;25.90;38.60
69328;DHT22;56472;52.114;5.492;2023-06-14T08:51:21;25.90;38.50
69328;DHT22;56472;52.114;5.492;2023-06-14T08:53:53;25.90;38.30
69328;DHT22;56472;52.114;5.492;2023-06-14T08:56:28;26.00;38.30
69328;DHT22;56472;52.114;5.492;2023-06-14T08:58:56;26.00;38.40
69328;DHT22;56472;52.114;5.492;2023-06-14T09:01:23;25.90;38.30
69328;DHT22;56472;52.114;5.492;2023-06-14T09:03:51;25.90;38.10
69328;DHT22;56472;52.114;5.492;2023-06-14T09:06:19;25.90;38.00
69328;DHT22;56472;52.114;5.492;2023-06-14T09:08:50;26.00;38.10
69328;DHT22;56472;52.114;5.492;2023-06-14T09:11:18;26.00;38.00
69328;DHT22;56472;52.114;5.492;2023-06-14T09:13:46;26.00;37.90
69328;DHT22;56472;52.114;5.492;2023-06-14T09:16:13;26.00;37.80
69328;DHT22;56472;52.114;5.492;2023-06-14T09:18:46;26.10;37.60
69328;DHT22;56472;52.114;5.492;2023-06-14T09:21:17;26.10;37.50
69328;DHT22;56472;52.114;5.492;2023-06-14T09:23:45;26.10;37.30
69328;DHT22;56472;52.114;5.492;2023-06-14T09:26:17;26.10;37.30
69328;DHT22;56472;52.114;5.492;2023-06-14T09:28:47;26.20;37.30
69328;DHT22;56472;52.114;5.492;2023-06-14T09:31:16;26.10;37.10
69328;DHT22;56472;52.114;5.492;2023-06-14T09:33:44;26.20;37.10
69328;DHT22;56472;52.114;5.492;2023-06-14T09:36:22;26.20;37.10
69328;DHT22;56472;52.114;5.492;2023-06-14T09:39:00;26.20;37.10
69328;DHT22;56472;52.114;5.492;2023-06-14T09:41:40;26.20;37.00
69328;DHT22;56472;52.114;5.492;2023-06-14T09:44:09;26.20;36.90
69328;DHT22;56472;52.114;5.492;2023-06-14T09:46:43;26.30;36.90
69328;DHT22;56472;52.114;5.492;2023-06-14T09:49:10;26.30;36.80
69328;DHT22;56472;52.114;5.492;2023-06-14T09:51:45;26.30;36.70
69328;DHT22;56472;52.114;5.492;2023-06-14T09:54:15;26.30;36.70
69328;DHT22;56472;52.114;5.492;2023-06-14T09:56:47;26.30;36.60
69328;DHT22;56472;52.114;5.492;2023-06-14T09:59:19;26.30;36.50
69328;DHT22;56472;52.114;5.492;2023-06-14T10:01:48;26.30;36.40
69328;DHT22;56472;52.114;5.492;2023-06-14T10:04:18;26.30;36.40
69328;DHT22;56472;52.114;5.492;2023-06-14T10:06:47;26.40;36.50
69328;DHT22;56472;52.114;5.492;2023-06-14T10:09:15;26.30;36.50
69328;DHT22;56472;52.114;5.492;2023-06-14T10:11:43;26.30;36.50
69328;DHT22;56472;52.114;5.492;2023-06-14T10:14:12;26.30;36.60
69328;DHT22;56472;52.114;5.492;2023-06-14T10:16:56;26.40;36.60
69328;DHT22;56472;52.114;5.492;2023-06-14T10:19:34;26.40;36.50
69328;DHT22;56472;52.114;5.492;2023-06-14T10:22:12;26.40;36.40
69328;DHT22;56472;52.114;5.492;2023-06-14T10:24:45;26.40;36.30
69328;DHT22;56472;52.114;5.492;2023-06-14T10:27:16;26.40;36.20
69328;DHT22;56472;52.114;5.492;2023-06-14T10:32:21;26.40;36.00
69328;DHT22;56472;52.114;5.492;2023-06-14T10:35:04;26.50;35.90
69328;DHT22;56472;52.114;5.492;2023-06-14T10:37:32;26.40;35.70
69328;DHT22;56472;52.114;5.492;2023-06-14T10:39:59;26.50;35.80
69328;DHT22;56472;52.114;5.492;2023-06-14T10:42:33;26.50;35.60
69328;DHT22;56472;52.114;5.492;2023-06-14T10:45:01;26.50;35.60
69328;DHT22;56472;52.114;5.492;2023-06-14T10:47:31;26.50;35.80
69328;DHT22;56472;52.114;5.492;2023-06-14T10:52:32;26.60;35.90
69328;DHT22;56472;52.114;5.492;2023-06-14T10:57:49;26.60;36.00
69328;DHT22;56472;52.114;5.492;2023-06-14T11:00:20;26.60;35.90
69328;DHT22;56472;52.114;5.492;2023-06-14T11:06:01;26.60;35.90
69328;DHT22;56472;52.114;5.492;2023-06-14T11:11:35;26.60;35.90
69328;DHT22;56472;52.114;5.492;2023-06-14T11:14:03;26.60;36.10
69328;DHT22;56472;52.114;5.492;2023-06-14T11:16:31;26.60;36.00
69328;DHT22;56472;52.114;5.492;2023-06-14T11:19:03;26.60;36.10
69328;DHT22;56472;52.114;5.492;2023-06-14T11:21:32;26.60;36.10
69328;DHT22;56472;52.114;5.492;2023-06-14T11:24:00;26.60;36.00
69328;DHT22;56472;52.114;5.492;2023-06-14T11:26:28;26.60;36.10
69328;DHT22;56472;52.114;5.492;2023-06-14T11:28:59;26.70;36.10
69328;DHT22;56472;52.114;5.492;2023-06-14T11:31:27;26.70;36.10
69328;DHT22;56472;52.114;5.492;2023-06-14T11:33:56;26.70;36.10
69328;DHT22;56472;52.114;5.492;2023-06-14T11:36:27;26.70;36.10
69328;DHT22;56472;52.114;5.492;2023-06-14T11:39:03;26.70;36.00
69328;DHT22;56472;52.114;5.492;2023-06-14T11:41:39;26.70;36.20
69328;DHT22;56472;52.114;5.492;2023-06-14T11:44:07;26.70;36.20
69328;DHT22;56472;52.114;5.492;2023-06-14T11:46:34;26.70;36.30
69328;DHT22;56472;52.114;5.492;2023-06-14T11:49:02;26.70;36.30
69328;DHT22;56472;52.114;5.492;2023-06-14T11:51:34;26.80;36.50
69328;DHT22;56472;52.114;5.492;2023-06-14T11:54:06;26.80;36.50
69328;DHT22;56472;52.114;5.492;2023-06-14T11:56:33;26.80;36.50
69328;DHT22;56472;52.114;5.492;2023-06-14T11:59:02;26.90;36.80
69328;DHT22;56472;52.114;5.492;2023-06-14T12:01:30;26.80;36.70
69328;DHT22;56472;52.114;5.492;2023-06-14T12:03:59;26.90;36.80
69328;DHT22;56472;52.114;5.492;2023-06-14T12:06:27;26.90;36.90
69328;DHT22;56472;52.114;5.492;2023-06-14T12:09:03;26.90;36.80
69328;DHT22;56472;52.114;5.492;2023-06-14T12:11:35;26.90;36.80
69328;DHT22;56472;52.114;5.492;2023-06-14T12:14:04;26.90;36.80
69328;DHT22;56472;52.114;5.492;2023-06-14T12:16:33;26.90;36.80
69328;DHT22;56472;52.114;5.492;2023-06-14T12:19:08;26.90;36.70
69328;DHT22;56472;52.114;5.492;2023-06-14T12:21:38;27.00;36.60
69328;DHT22;56472;52.114;5.492;2023-06-14T12:24:06;27.00;36.50
69328;DHT22;56472;52.114;5.492;2023-06-14T12:26:34;27.00;36.40
69328;DHT22;56472;52.114;5.492;2023-06-14T12:29:05;27.00;36.30
69328;DHT22;56472;52.114;5.492;2023-06-14T12:31:33;27.00;36.20
69328;DHT22;56472;52.114;5.492;2023-06-14T12:34:01;27.00;36.10
69328;DHT22;56472;52.114;5.492;2023-06-14T12:36:28;27.00;36.00
69328;DHT22;56472;52.114;5.492;2023-06-14T12:38:55;27.00;35.90
69328;DHT22;56472;52.114;5.492;2023-06-14T12:41:22;27.00;35.80
69328;DHT22;56472;52.114;5.492;2023-06-14T12:43:49;27.10;35.80
69328;DHT22;56472;52.114;5.492;2023-06-14T12:46:16;27.10;35.70
69328;DHT22;56472;52.114;5.492;2023-06-14T12:48:43;27.10;35.60
69328;DHT22;56472;52.114;5.492;2023-06-14T12:51:11;27.10;35.50
69328;DHT22;56472;52.114;5.492;2023-06-14T12:53:38;27.10;35.40
69328;DHT22;56472;52.114;5.492;2023-06-14T12:56:05;27.10;35.30
69328;DHT22;56472;52.114;5.492;2023-06-14T12:58:32;27.10;36.30
69328;DHT22;56472;52.114;5.492;2023-06-14T13:00:58;27.10;35.30
69328;DHT22;56472;52.114;5.492;2023-06-14T13:03:25;27.10;35.30
69328;DHT22;56472;52.114;5.492;2023-06-14T13:05:52;27.20;35.50
69328;DHT22;56472;52.114;5.492;2023-06-14T13:08:19;27.20;35.40
69328;DHT22;56472;52.114;5.492;2023-06-14T13:10:50;27.20;35.30
69328;DHT22;56472;52.114;5.492;2023-06-14T13:13:17;27.20;35.40
69328;DHT22;56472;52.114;5.492;2023-06-14T13:15:44;27.20;35.40
69328;DHT22;56472;52.114;5.492;2023-06-14T13:18:12;27.30;35.60
69328;DHT22;56472;52.114;5.492;2023-06-14T13:20:39;27.20;35.40
69328;DHT22;56472;52.114;5.492;2023-06-14T13:23:07;27.30;35.50
69328;DHT22;56472;52.114;5.492;2023-06-14T13:25:35;27.30;35.50
69328;DHT22;56472;52.114;5.492;2023-06-14T13:28:04;27.30;35.60
69328;DHT22;56472;52.114;5.492;2023-06-14T13:30:32;27.30;35.60
69328;DHT22;56472;52.114;5.492;2023-06-14T13:32:59;27.30;35.70
69328;DHT22;56472;52.114;5.492;2023-06-14T13:35:26;27.30;35.70
69328;DHT22;56472;52.114;5.492;2023-06-14T13:37:54;27.30;35.70
69328;DHT22;56472;52.114;5.492;2023-06-14T13:40:21;27.30;35.40
69328;DHT22;56472;52.114;5.492;2023-06-14T13:42:48;27.40;35.50
69328;DHT22;56472;52.114;5.492;2023-06-14T13:45:15;27.40;35.50
69328;DHT22;56472;52.114;5.492;2023-06-14T13:47:42;27.40;35.50
69328;DHT22;56472;52.114;5.492;2023-06-14T13:50:09;27.40;35.60
69328;DHT22;56472;52.114;5.492;2023-06-14T13:52:36;27.40;35.50
69328;DHT22;56472;52.114;5.492;2023-06-14T13:55:04;27.50;35.60
69328;DHT22;56472;52.114;5.492;2023-06-14T13:57:32;27.50;35.50
69328;DHT22;56472;52.114;5.492;2023-06-14T13:59:59;27.50;35.60
69328;DHT22;56472;52.114;5.492;2023-06-14T14:02:38;27.50;35.60
69328;DHT22;56472;52.114;5.492;2023-06-14T14:05:07;27.50;35.60
69328;DHT22;56472;52.114;5.492;2023-06-14T14:07:34;27.60;35.50
69328;DHT22;56472;52.114;5.492;2023-06-14T14:10:03;27.60;35.60
69328;DHT22;56472;52.114;5.492;2023-06-14T14:12:30;27.60;35.70
69328;DHT22;56472;52.114;5.492;2023-06-14T14:14:57;27.60;35.60
69328;DHT22;56472;52.114;5.492;2023-06-14T14:17:24;27.70;35.70
69328;DHT22;56472;52.114;5.492;2023-06-14T14:19:51;27.70;35.60
69328;DHT22;56472;52.114;5.492;2023-06-14T14:22:19;27.70;35.40
69328;DHT22;56472;52.114;5.492;2023-06-14T14:24:45;27.70;35.30
69328;DHT22;56472;52.114;5.492;2023-06-14T14:27:13;27.70;35.30
69328;DHT22;56472;52.114;5.492;2023-06-14T14:29:40;27.80;35.30
69328;DHT22;56472;52.114;5.492;2023-06-14T14:32:07;27.80;35.20
69328;DHT22;56472;52.114;5.492;2023-06-14T14:34:34;27.80;35.00
69328;DHT22;56472;52.114;5.492;2023-06-14T14:37:01;27.90;35.10
69328;DHT22;56472;52.114;5.492;2023-06-14T14:39:28;27.90;35.00
69328;DHT22;56472;52.114;5.492;2023-06-14T14:41:56;27.90;34.90
69328;DHT22;56472;52.114;5.492;2023-06-14T14:44:23;27.90;34.90
69328;DHT22;56472;52.114;5.492;2023-06-14T14:46:50;27.90;34.90
69328;DHT22;56472;52.114;5.492;2023-06-14T14:49:17;28.00;35.00
69328;DHT22;56472;52.114;5.492;2023-06-14T14:51:44;28.00;35.00
69328;DHT22;56472;52.114;5.492;2023-06-14T14:54:11;28.00;35.00
69328;DHT22;56472;52.114;5.492;2023-06-14T14:56:38;28.00;35.10
69328;DHT22;56472;52.114;5.492;2023-06-14T14:59:05;28.10;35.10
69328;DHT22;56472;52.114;5.492;2023-06-14T15:01:32;28.10;34.90
69328;DHT22;56472;52.114;5.492;2023-06-14T15:03:59;28.10;34.70
69328;DHT22;56472;52.114;5.492;2023-06-14T15:06:26;28.10;34.50
69328;DHT22;56472;52.114;5.492;2023-06-14T15:08:53;28.10;34.40
69328;DHT22;56472;52.114;5.492;2023-06-14T15:11:20;28.20;34.40
69328;DHT22;56472;52.114;5.492;2023-06-14T15:13:47;28.20;34.40
69328;DHT22;56472;52.114;5.492;2023-06-14T15:16:16;28.20;34.30
69328;DHT22;56472;52.114;5.492;2023-06-14T15:18:43;28.20;34.10
69328;DHT22;56472;52.114;5.492;2023-06-14T15:21:09;28.30;34.10
69328;DHT22;56472;52.114;5.492;2023-06-14T15:23:36;28.30;34.10
69328;DHT22;56472;52.114;5.492;2023-06-14T15:26:03;28.30;34.00
69328;DHT22;56472;52.114;5.492;2023-06-14T15:28:30;28.40;34.10
69328;DHT22;56472;52.114;5.492;2023-06-14T15:30:59;28.40;34.00
69328;DHT22;56472;52.114;5.492;2023-06-14T15:33:27;28.40;34.00
69328;DHT22;56472;52.114;5.492;2023-06-14T15:35:54;28.40;34.00
69328;DHT22;56472;52.114;5.492;2023-06-14T15:38:21;28.50;33.90
69328;DHT22;56472;52.114;5.492;2023-06-14T15:40:49;28.50;33.80
69328;DHT22;56472;52.114;5.492;2023-06-14T15:43:18;28.50;33.70
69328;DHT22;56472;52.114;5.492;2023-06-14T15:45:45;28.50;33.80
69328;DHT22;56472;52.114;5.492;2023-06-14T15:48:12;28.60;33.80
69328;DHT22;56472;52.114;5.492;2023-06-14T15:50:39;28.60;33.70
69328;DHT22;56472;52.114;5.492;2023-06-14T15:53:06;28.60;33.50